Главная страница
METAR-TAF:

METAR-TAF

Аэропорты :

Херингсдорф, Германия

широта: 53-53N, долгота: 014-09E, высота над уровнем моря: 28 м

Текущие метеонаблюдения

Эта сводка был подготовлена 22 минут назад, в 11:20 UTC
Ветер 7 Узел от западный, изменяющийся между западный-юго-западный и северо-западный
Температура 13°C
Влажность 67%
Давление 1014 hPa
Видимость 10 км и более
Рассеянная облачность на высоте 2500 фута

METAR: EDAH 251120Z 28007KT 250V320 9999 BKN025 13/07 Q1014

Время: 13:42 (11:42 UTC)

Прогноз

Эта сводка был подготовлена 42 минут назад, в 11:00 UTC
Прогноз действительный с 25-го 12 UTC до 25-го 21 UTC
Ветер 10 Узел от западный
Видимость 10 км и более
Рассеянная облачность на высоте 3000 фута

TAF: EDAH 251100Z 2512/2521 28010KT 9999 BKN030

Метеонаблюдения и прогнозы для более 4000 аэропортов (сводки METAR и TAF).

Имеющиеся станции представлены на карте желтыми и красными точками.

Чтобы увидеть название станции, наведите на нее мышь.

Затем щелкните, чтобы увидеть метеонаблюдения и метеопрогнозы.

Управление картой: чтобы увеличить масштаб, щелкните зеленые кнопки с черным крестиком; чтобы уменьшить масштаб, щелкните зеленую кнопку с тире; для просмотра соседних карт щелкайте зеленые стрелки.


METAR-TAF: